sensor_id;sensor_type;location;lat;lon;timestamp;P1;durP1;ratioP1;P2;durP2;ratioP2
36547;SDS011;22551;52.206;4.856;2022-12-10T00:00:05;59.13;;;18.63;;
36547;SDS011;22551;52.206;4.856;2022-12-10T00:05:10;62.00;;;19.40;;
36547;SDS011;22551;52.206;4.856;2022-12-10T00:10:12;61.25;;;18.52;;
36547;SDS011;22551;52.206;4.856;2022-12-10T00:15:14;54.97;;;18.27;;
36547;SDS011;22551;52.206;4.856;2022-12-10T00:20:18;52.85;;;18.30;;
36547;SDS011;22551;52.206;4.856;2022-12-10T00:25:21;57.83;;;17.83;;
36547;SDS011;22551;52.206;4.856;2022-12-10T00:30:23;58.85;;;18.23;;
36547;SDS011;22551;52.206;4.856;2022-12-10T00:35:27;54.08;;;16.92;;
36547;SDS011;22551;52.206;4.856;2022-12-10T00:40:30;56.97;;;18.23;;
36547;SDS011;22551;52.206;4.856;2022-12-10T00:45:34;61.45;;;18.05;;
36547;SDS011;22551;52.206;4.856;2022-12-10T00:50:37;63.08;;;19.05;;
36547;SDS011;22551;52.206;4.856;2022-12-10T00:55:41;67.83;;;19.27;;
36547;SDS011;22551;52.206;4.856;2022-12-10T01:00:44;71.50;;;17.48;;
36547;SDS011;22551;52.206;4.856;2022-12-10T01:05:48;68.45;;;17.52;;
36547;SDS011;22551;52.206;4.856;2022-12-10T01:10:52;65.88;;;18.10;;
36547;SDS011;22551;52.206;4.856;2022-12-10T01:15:54;66.03;;;18.50;;
36547;SDS011;22551;52.206;4.856;2022-12-10T01:21:01;63.40;;;19.95;;
36547;SDS011;22551;52.206;4.856;2022-12-10T01:26:04;64.18;;;18.33;;
36547;SDS011;22551;52.206;4.856;2022-12-10T01:31:10;68.05;;;20.45;;
36547;SDS011;22551;52.206;4.856;2022-12-10T01:36:20;67.78;;;21.15;;
36547;SDS011;22551;52.206;4.856;2022-12-10T01:41:25;79.57;;;20.25;;
36547;SDS011;22551;52.206;4.856;2022-12-10T01:46:30;66.18;;;18.40;;
36547;SDS011;22551;52.206;4.856;2022-12-10T01:51:37;49.50;;;17.80;;
36547;SDS011;22551;52.206;4.856;2022-12-10T01:56:44;65.05;;;19.33;;
36547;SDS011;22551;52.206;4.856;2022-12-10T02:01:49;67.13;;;18.65;;
36547;SDS011;22551;52.206;4.856;2022-12-10T02:07:01;78.70;;;21.92;;
36547;SDS011;22551;52.206;4.856;2022-12-10T02:12:17;63.35;;;19.40;;
36547;SDS011;22551;52.206;4.856;2022-12-10T02:17:25;72.70;;;19.33;;
36547;SDS011;22551;52.206;4.856;2022-12-10T02:22:34;69.53;;;20.13;;
36547;SDS011;22551;52.206;4.856;2022-12-10T02:27:42;64.75;;;18.17;;
36547;SDS011;22551;52.206;4.856;2022-12-10T02:32:51;71.13;;;20.27;;
36547;SDS011;22551;52.206;4.856;2022-12-10T02:37:56;73.80;;;22.33;;
36547;SDS011;22551;52.206;4.856;2022-12-10T02:43:02;80.90;;;21.30;;
36547;SDS011;22551;52.206;4.856;2022-12-10T02:48:06;69.43;;;19.23;;
36547;SDS011;22551;52.206;4.856;2022-12-10T02:53:08;69.28;;;18.52;;
36547;SDS011;22551;52.206;4.856;2022-12-10T02:58:13;70.95;;;17.67;;
36547;SDS011;22551;52.206;4.856;2022-12-10T03:03:31;60.83;;;19.33;;
36547;SDS011;22551;52.206;4.856;2022-12-10T03:08:42;64.43;;;20.58;;
36547;SDS011;22551;52.206;4.856;2022-12-10T03:13:53;77.28;;;21.58;;
36547;SDS011;22551;52.206;4.856;2022-12-10T03:19:03;79.00;;;22.95;;
36547;SDS011;22551;52.206;4.856;2022-12-10T03:24:08;84.53;;;23.30;;
36547;SDS011;22551;52.206;4.856;2022-12-10T03:29:12;81.97;;;21.70;;
36547;SDS011;22551;52.206;4.856;2022-12-10T03:34:26;84.65;;;20.80;;
36547;SDS011;22551;52.206;4.856;2022-12-10T03:39:29;97.15;;;22.05;;
36547;SDS011;22551;52.206;4.856;2022-12-10T03:44:33;82.70;;;21.13;;
36547;SDS011;22551;52.206;4.856;2022-12-10T03:49:38;77.00;;;21.88;;
36547;SDS011;22551;52.206;4.856;2022-12-10T03:54:41;73.50;;;18.45;;
36547;SDS011;22551;52.206;4.856;2022-12-10T03:59:43;126.85;;;25.48;;
36547;SDS011;22551;52.206;4.856;2022-12-10T04:04:47;106.28;;;20.13;;
36547;SDS011;22551;52.206;4.856;2022-12-10T04:09:49;143.65;;;25.90;;
36547;SDS011;22551;52.206;4.856;2022-12-10T04:14:53;102.10;;;19.77;;
36547;SDS011;22551;52.206;4.856;2022-12-10T04:20:14;86.72;;;19.20;;
36547;SDS011;22551;52.206;4.856;2022-12-10T04:25:30;115.35;;;21.40;;
36547;SDS011;22551;52.206;4.856;2022-12-10T04:30:58;133.02;;;21.45;;
36547;SDS011;22551;52.206;4.856;2022-12-10T04:36:01;87.30;;;18.65;;
36547;SDS011;22551;52.206;4.856;2022-12-10T04:41:04;66.43;;;15.10;;
36547;SDS011;22551;52.206;4.856;2022-12-10T04:46:15;64.20;;;14.80;;
36547;SDS011;22551;52.206;4.856;2022-12-10T04:51:18;56.67;;;15.48;;
36547;SDS011;22551;52.206;4.856;2022-12-10T04:56:21;98.20;;;19.42;;
36547;SDS011;22551;52.206;4.856;2022-12-10T05:01:24;76.90;;;15.98;;
36547;SDS011;22551;52.206;4.856;2022-12-10T05:06:28;46.90;;;12.75;;
36547;SDS011;22551;52.206;4.856;2022-12-10T05:11:31;80.80;;;16.23;;
36547;SDS011;22551;52.206;4.856;2022-12-10T05:16:35;63.15;;;13.52;;
36547;SDS011;22551;52.206;4.856;2022-12-10T05:21:39;40.50;;;11.77;;
36547;SDS011;22551;52.206;4.856;2022-12-10T05:26:58;56.55;;;13.45;;
36547;SDS011;22551;52.206;4.856;2022-12-10T05:32:01;53.88;;;12.90;;
36547;SDS011;22551;52.206;4.856;2022-12-10T05:37:06;91.22;;;15.82;;
36547;SDS011;22551;52.206;4.856;2022-12-10T05:42:08;97.47;;;18.92;;
36547;SDS011;22551;52.206;4.856;2022-12-10T05:47:11;40.67;;;10.80;;
36547;SDS011;22551;52.206;4.856;2022-12-10T05:52:14;81.30;;;14.82;;
36547;SDS011;22551;52.206;4.856;2022-12-10T05:57:16;82.97;;;14.65;;
36547;SDS011;22551;52.206;4.856;2022-12-10T06:02:19;79.15;;;14.02;;
36547;SDS011;22551;52.206;4.856;2022-12-10T06:07:22;65.20;;;13.13;;
36547;SDS011;22551;52.206;4.856;2022-12-10T06:12:25;60.60;;;13.00;;
36547;SDS011;22551;52.206;4.856;2022-12-10T06:17:27;48.72;;;13.35;;
36547;SDS011;22551;52.206;4.856;2022-12-10T06:22:31;45.28;;;13.23;;
36547;SDS011;22551;52.206;4.856;2022-12-10T06:27:34;38.53;;;12.80;;
36547;SDS011;22551;52.206;4.856;2022-12-10T06:32:36;53.22;;;13.48;;
36547;SDS011;22551;52.206;4.856;2022-12-10T06:37:40;40.83;;;12.00;;
36547;SDS011;22551;52.206;4.856;2022-12-10T06:42:43;61.13;;;14.35;;
36547;SDS011;22551;52.206;4.856;2022-12-10T06:47:45;61.25;;;14.02;;
36547;SDS011;22551;52.206;4.856;2022-12-10T06:52:49;59.90;;;13.93;;
36547;SDS011;22551;52.206;4.856;2022-12-10T06:57:52;42.78;;;13.43;;
36547;SDS011;22551;52.206;4.856;2022-12-10T07:02:54;44.97;;;14.63;;
36547;SDS011;22551;52.206;4.856;2022-12-10T07:07:58;41.58;;;11.43;;
36547;SDS011;22551;52.206;4.856;2022-12-10T07:13:00;55.78;;;14.82;;
36547;SDS011;22551;52.206;4.856;2022-12-10T07:18:03;49.17;;;13.73;;
36547;SDS011;22551;52.206;4.856;2022-12-10T07:23:06;45.53;;;14.57;;
36547;SDS011;22551;52.206;4.856;2022-12-10T07:28:08;49.10;;;13.93;;
36547;SDS011;22551;52.206;4.856;2022-12-10T07:33:11;42.85;;;12.38;;
36547;SDS011;22551;52.206;4.856;2022-12-10T07:38:15;41.30;;;12.77;;
36547;SDS011;22551;52.206;4.856;2022-12-10T07:43:17;44.83;;;12.82;;
36547;SDS011;22551;52.206;4.856;2022-12-10T07:48:19;41.97;;;14.15;;
36547;SDS011;22551;52.206;4.856;2022-12-10T07:53:23;56.42;;;15.35;;
36547;SDS011;22551;52.206;4.856;2022-12-10T07:58:25;63.60;;;14.57;;
36547;SDS011;22551;52.206;4.856;2022-12-10T08:03:27;42.97;;;12.80;;
36547;SDS011;22551;52.206;4.856;2022-12-10T08:08:32;38.00;;;11.80;;
36547;SDS011;22551;52.206;4.856;2022-12-10T08:13:35;38.70;;;12.65;;
36547;SDS011;22551;52.206;4.856;2022-12-10T08:18:38;41.50;;;13.70;;
36547;SDS011;22551;52.206;4.856;2022-12-10T08:23:42;68.22;;;15.00;;
36547;SDS011;22551;52.206;4.856;2022-12-10T08:28:46;35.75;;;11.70;;
36547;SDS011;22551;52.206;4.856;2022-12-10T08:33:50;51.80;;;14.05;;
36547;SDS011;22551;52.206;4.856;2022-12-10T08:38:54;50.53;;;15.02;;
36547;SDS011;22551;52.206;4.856;2022-12-10T08:43:57;55.53;;;14.38;;
36547;SDS011;22551;52.206;4.856;2022-12-10T08:48:59;41.65;;;13.88;;
36547;SDS011;22551;52.206;4.856;2022-12-10T08:54:03;53.55;;;14.18;;
36547;SDS011;22551;52.206;4.856;2022-12-10T08:59:05;60.63;;;15.63;;
36547;SDS011;22551;52.206;4.856;2022-12-10T09:04:07;38.42;;;12.65;;
36547;SDS011;22551;52.206;4.856;2022-12-10T09:09:11;47.13;;;12.95;;
36547;SDS011;22551;52.206;4.856;2022-12-10T09:14:13;48.35;;;13.57;;
36547;SDS011;22551;52.206;4.856;2022-12-10T09:19:15;46.00;;;13.50;;
36547;SDS011;22551;52.206;4.856;2022-12-10T09:24:19;58.03;;;14.82;;
36547;SDS011;22551;52.206;4.856;2022-12-10T09:29:21;54.80;;;15.23;;
36547;SDS011;22551;52.206;4.856;2022-12-10T09:34:23;40.40;;;13.35;;
36547;SDS011;22551;52.206;4.856;2022-12-10T09:39:27;72.35;;;17.45;;
36547;SDS011;22551;52.206;4.856;2022-12-10T09:44:32;43.08;;;13.15;;
36547;SDS011;22551;52.206;4.856;2022-12-10T09:49:49;39.60;;;12.25;;
36547;SDS011;22551;52.206;4.856;2022-12-10T09:55:02;53.67;;;12.82;;
36547;SDS011;22551;52.206;4.856;2022-12-10T10:00:17;55.70;;;12.10;;
36547;SDS011;22551;52.206;4.856;2022-12-10T10:05:24;64.20;;;14.77;;
36547;SDS011;22551;52.206;4.856;2022-12-10T10:10:30;44.65;;;12.77;;
36547;SDS011;22551;52.206;4.856;2022-12-10T10:15:36;47.80;;;14.25;;
36547;SDS011;22551;52.206;4.856;2022-12-10T10:20:42;52.97;;;14.68;;
36547;SDS011;22551;52.206;4.856;2022-12-10T10:25:46;36.88;;;12.75;;
36547;SDS011;22551;52.206;4.856;2022-12-10T10:30:48;58.95;;;15.60;;
36547;SDS011;22551;52.206;4.856;2022-12-10T10:35:54;54.53;;;12.00;;
36547;SDS011;22551;52.206;4.856;2022-12-10T10:41:01;41.38;;;14.10;;
36547;SDS011;22551;52.206;4.856;2022-12-10T10:46:06;47.38;;;15.43;;
36547;SDS011;22551;52.206;4.856;2022-12-10T10:51:15;54.72;;;15.25;;
36547;SDS011;22551;52.206;4.856;2022-12-10T10:56:25;57.10;;;16.10;;
36547;SDS011;22551;52.206;4.856;2022-12-10T11:01:43;58.00;;;16.25;;
36547;SDS011;22551;52.206;4.856;2022-12-10T11:06:47;87.97;;;18.42;;
36547;SDS011;22551;52.206;4.856;2022-12-10T11:11:57;62.67;;;18.63;;
36547;SDS011;22551;52.206;4.856;2022-12-10T11:17:03;62.03;;;16.30;;
36547;SDS011;22551;52.206;4.856;2022-12-10T11:22:23;61.20;;;16.83;;
36547;SDS011;22551;52.206;4.856;2022-12-10T11:27:36;76.83;;;17.10;;
36547;SDS011;22551;52.206;4.856;2022-12-10T11:32:52;60.85;;;17.42;;
36547;SDS011;22551;52.206;4.856;2022-12-10T11:38:15;64.70;;;16.65;;
36547;SDS011;22551;52.206;4.856;2022-12-10T11:43:40;80.63;;;21.08;;
36547;SDS011;22551;52.206;4.856;2022-12-10T11:48:55;71.18;;;18.05;;
36547;SDS011;22551;52.206;4.856;2022-12-10T11:54:13;65.72;;;18.80;;
36547;SDS011;22551;52.206;4.856;2022-12-10T11:59:33;62.60;;;18.27;;
36547;SDS011;22551;52.206;4.856;2022-12-10T12:04:47;74.63;;;19.50;;
36547;SDS011;22551;52.206;4.856;2022-12-10T12:15:48;89.47;;;21.05;;
36547;SDS011;22551;52.206;4.856;2022-12-10T12:20:56;73.85;;;19.35;;
36547;SDS011;22551;52.206;4.856;2022-12-10T12:26:02;79.75;;;20.52;;
36547;SDS011;22551;52.206;4.856;2022-12-10T12:31:12;76.25;;;19.85;;
36547;SDS011;22551;52.206;4.856;2022-12-10T12:36:19;75.32;;;19.08;;
36547;SDS011;22551;52.206;4.856;2022-12-10T12:41:24;85.25;;;19.60;;
36547;SDS011;22551;52.206;4.856;2022-12-10T12:46:37;73.40;;;17.88;;
36547;SDS011;22551;52.206;4.856;2022-12-10T12:51:44;68.90;;;19.05;;
36547;SDS011;22551;52.206;4.856;2022-12-10T12:56:57;88.10;;;17.85;;
36547;SDS011;22551;52.206;4.856;2022-12-10T13:02:12;78.85;;;20.50;;
36547;SDS011;22551;52.206;4.856;2022-12-10T13:07:29;73.35;;;19.27;;
36547;SDS011;22551;52.206;4.856;2022-12-10T13:12:44;69.53;;;17.23;;
36547;SDS011;22551;52.206;4.856;2022-12-10T13:18:05;77.93;;;18.63;;
36547;SDS011;22551;52.206;4.856;2022-12-10T13:23:46;84.85;;;19.92;;
36547;SDS011;22551;52.206;4.856;2022-12-10T13:28:55;76.38;;;19.48;;
36547;SDS011;22551;52.206;4.856;2022-12-10T13:34:23;77.30;;;18.30;;
36547;SDS011;22551;52.206;4.856;2022-12-10T13:39:33;100.03;;;21.30;;
36547;SDS011;22551;52.206;4.856;2022-12-10T13:44:45;100.03;;;23.10;;
36547;SDS011;22551;52.206;4.856;2022-12-10T13:49:54;104.57;;;20.48;;
36547;SDS011;22551;52.206;4.856;2022-12-10T13:55:04;242.88;;;31.95;;
36547;SDS011;22551;52.206;4.856;2022-12-10T14:00:22;104.88;;;20.48;;
36547;SDS011;22551;52.206;4.856;2022-12-10T14:05:41;136.85;;;23.52;;
36547;SDS011;22551;52.206;4.856;2022-12-10T14:10:55;118.07;;;21.58;;
36547;SDS011;22551;52.206;4.856;2022-12-10T14:16:00;99.10;;;21.75;;
36547;SDS011;22551;52.206;4.856;2022-12-10T14:21:06;84.53;;;20.60;;
36547;SDS011;22551;52.206;4.856;2022-12-10T14:26:10;81.20;;;20.65;;
36547;SDS011;22551;52.206;4.856;2022-12-10T14:31:16;82.88;;;19.80;;
36547;SDS011;22551;52.206;4.856;2022-12-10T14:36:24;97.25;;;22.15;;
36547;SDS011;22551;52.206;4.856;2022-12-10T14:41:31;71.22;;;18.00;;
36547;SDS011;22551;52.206;4.856;2022-12-10T14:46:34;70.15;;;19.05;;
36547;SDS011;22551;52.206;4.856;2022-12-10T14:51:37;78.72;;;20.52;;
36547;SDS011;22551;52.206;4.856;2022-12-10T14:56:40;91.05;;;21.05;;
36547;SDS011;22551;52.206;4.856;2022-12-10T15:01:44;99.75;;;23.02;;
36547;SDS011;22551;52.206;4.856;2022-12-10T15:06:50;78.53;;;18.98;;
36547;SDS011;22551;52.206;4.856;2022-12-10T15:11:53;95.90;;;21.80;;
36547;SDS011;22551;52.206;4.856;2022-12-10T15:16:56;85.03;;;21.60;;
36547;SDS011;22551;52.206;4.856;2022-12-10T15:22:01;84.95;;;21.42;;
36547;SDS011;22551;52.206;4.856;2022-12-10T15:27:21;79.47;;;20.42;;
36547;SDS011;22551;52.206;4.856;2022-12-10T15:32:26;101.25;;;21.75;;
36547;SDS011;22551;52.206;4.856;2022-12-10T15:37:32;90.63;;;20.83;;
36547;SDS011;22551;52.206;4.856;2022-12-10T15:42:37;97.03;;;21.88;;
36547;SDS011;22551;52.206;4.856;2022-12-10T15:47:41;89.77;;;22.70;;
36547;SDS011;22551;52.206;4.856;2022-12-10T15:52:45;105.25;;;22.83;;
36547;SDS011;22551;52.206;4.856;2022-12-10T15:57:48;98.55;;;24.23;;
36547;SDS011;22551;52.206;4.856;2022-12-10T16:02:50;104.53;;;24.02;;
36547;SDS011;22551;52.206;4.856;2022-12-10T16:07:58;107.82;;;23.15;;
36547;SDS011;22551;52.206;4.856;2022-12-10T16:18:08;84.47;;;21.50;;
36547;SDS011;22551;52.206;4.856;2022-12-10T16:23:13;115.93;;;24.27;;
36547;SDS011;22551;52.206;4.856;2022-12-10T16:28:16;104.10;;;23.27;;
36547;SDS011;22551;52.206;4.856;2022-12-10T16:33:22;116.97;;;25.35;;
36547;SDS011;22551;52.206;4.856;2022-12-10T16:38:28;91.27;;;22.03;;
36547;SDS011;22551;52.206;4.856;2022-12-10T16:43:30;94.45;;;22.92;;
36547;SDS011;22551;52.206;4.856;2022-12-10T16:48:32;94.10;;;22.73;;
36547;SDS011;22551;52.206;4.856;2022-12-10T16:53:36;127.38;;;27.23;;
36547;SDS011;22551;52.206;4.856;2022-12-10T16:58:38;97.15;;;23.35;;
36547;SDS011;22551;52.206;4.856;2022-12-10T17:03:40;97.18;;;23.15;;
36547;SDS011;22551;52.206;4.856;2022-12-10T17:08:44;107.82;;;23.67;;
36547;SDS011;22551;52.206;4.856;2022-12-10T17:13:47;117.20;;;24.23;;
36547;SDS011;22551;52.206;4.856;2022-12-10T17:18:50;93.78;;;21.52;;
36547;SDS011;22551;52.206;4.856;2022-12-10T17:23:54;75.03;;;22.10;;
36547;SDS011;22551;52.206;4.856;2022-12-10T17:28:59;101.85;;;22.45;;
36547;SDS011;22551;52.206;4.856;2022-12-10T17:34:04;83.53;;;21.83;;
36547;SDS011;22551;52.206;4.856;2022-12-10T17:39:10;99.53;;;23.20;;
36547;SDS011;22551;52.206;4.856;2022-12-10T17:44:15;84.13;;;20.92;;
36547;SDS011;22551;52.206;4.856;2022-12-10T17:49:17;97.45;;;22.20;;
36547;SDS011;22551;52.206;4.856;2022-12-10T17:54:21;86.10;;;22.55;;
36547;SDS011;22551;52.206;4.856;2022-12-10T17:59:23;81.90;;;22.65;;
36547;SDS011;22551;52.206;4.856;2022-12-10T18:04:25;83.63;;;21.70;;
36547;SDS011;22551;52.206;4.856;2022-12-10T18:09:28;83.75;;;21.38;;
36547;SDS011;22551;52.206;4.856;2022-12-10T18:14:31;87.15;;;21.38;;
36547;SDS011;22551;52.206;4.856;2022-12-10T18:19:33;103.05;;;24.60;;
36547;SDS011;22551;52.206;4.856;2022-12-10T18:24:36;93.97;;;23.13;;
36547;SDS011;22551;52.206;4.856;2022-12-10T18:29:39;87.65;;;23.27;;
36547;SDS011;22551;52.206;4.856;2022-12-10T18:34:41;101.38;;;24.23;;
36547;SDS011;22551;52.206;4.856;2022-12-10T18:39:45;81.53;;;20.92;;
36547;SDS011;22551;52.206;4.856;2022-12-10T18:44:47;78.10;;;22.13;;
36547;SDS011;22551;52.206;4.856;2022-12-10T18:49:49;83.55;;;20.85;;
36547;SDS011;22551;52.206;4.856;2022-12-10T18:54:53;87.70;;;20.55;;
36547;SDS011;22551;52.206;4.856;2022-12-10T18:59:55;87.15;;;20.60;;
36547;SDS011;22551;52.206;4.856;2022-12-10T19:04:57;70.45;;;19.38;;
36547;SDS011;22551;52.206;4.856;2022-12-10T19:10:01;84.38;;;21.70;;
36547;SDS011;22551;52.206;4.856;2022-12-10T19:15:04;69.63;;;19.00;;
36547;SDS011;22551;52.206;4.856;2022-12-10T19:20:10;68.60;;;19.92;;
36547;SDS011;22551;52.206;4.856;2022-12-10T19:25:17;56.30;;;20.10;;
36547;SDS011;22551;52.206;4.856;2022-12-10T19:30:21;70.30;;;20.58;;
36547;SDS011;22551;52.206;4.856;2022-12-10T19:35:25;70.90;;;23.63;;
36547;SDS011;22551;52.206;4.856;2022-12-10T19:40:31;65.32;;;20.02;;
36547;SDS011;22551;52.206;4.856;2022-12-10T19:45:35;71.35;;;21.08;;
36547;SDS011;22551;52.206;4.856;2022-12-10T19:50:37;75.82;;;22.40;;
36547;SDS011;22551;52.206;4.856;2022-12-10T19:55:41;92.38;;;23.13;;
36547;SDS011;22551;52.206;4.856;2022-12-10T20:00:43;83.53;;;25.25;;
36547;SDS011;22551;52.206;4.856;2022-12-10T20:05:47;80.00;;;22.83;;
36547;SDS011;22551;52.206;4.856;2022-12-10T20:10:51;83.30;;;22.35;;
36547;SDS011;22551;52.206;4.856;2022-12-10T20:15:53;79.55;;;20.15;;
36547;SDS011;22551;52.206;4.856;2022-12-10T20:20:55;87.05;;;23.85;;
36547;SDS011;22551;52.206;4.856;2022-12-10T20:25:59;68.90;;;20.33;;
36547;SDS011;22551;52.206;4.856;2022-12-10T20:31:02;78.90;;;20.75;;
36547;SDS011;22551;52.206;4.856;2022-12-10T20:36:05;69.97;;;20.30;;
36547;SDS011;22551;52.206;4.856;2022-12-10T20:41:11;85.75;;;21.42;;
36547;SDS011;22551;52.206;4.856;2022-12-10T20:46:15;73.72;;;21.85;;
36547;SDS011;22551;52.206;4.856;2022-12-10T20:51:21;81.93;;;22.58;;
36547;SDS011;22551;52.206;4.856;2022-12-10T20:56:25;86.25;;;22.30;;
36547;SDS011;22551;52.206;4.856;2022-12-10T21:01:27;79.95;;;21.27;;
36547;SDS011;22551;52.206;4.856;2022-12-10T21:06:30;73.70;;;21.08;;
36547;SDS011;22551;52.206;4.856;2022-12-10T21:11:34;78.53;;;20.70;;
36547;SDS011;22551;52.206;4.856;2022-12-10T21:16:37;63.75;;;20.10;;
36547;SDS011;22551;52.206;4.856;2022-12-10T21:21:39;69.47;;;18.50;;
36547;SDS011;22551;52.206;4.856;2022-12-10T21:26:43;69.25;;;20.50;;
36547;SDS011;22551;52.206;4.856;2022-12-10T21:31:45;64.18;;;20.00;;
36547;SDS011;22551;52.206;4.856;2022-12-10T21:36:47;69.68;;;21.92;;
36547;SDS011;22551;52.206;4.856;2022-12-10T21:41:51;62.70;;;17.85;;
36547;SDS011;22551;52.206;4.856;2022-12-10T21:47:10;61.95;;;19.40;;
36547;SDS011;22551;52.206;4.856;2022-12-10T21:52:13;51.88;;;17.85;;
36547;SDS011;22551;52.206;4.856;2022-12-10T21:57:17;55.70;;;19.48;;
36547;SDS011;22551;52.206;4.856;2022-12-10T22:02:19;57.88;;;18.88;;
36547;SDS011;22551;52.206;4.856;2022-12-10T22:07:22;55.72;;;18.27;;
36547;SDS011;22551;52.206;4.856;2022-12-10T22:12:27;60.28;;;18.58;;
36547;SDS011;22551;52.206;4.856;2022-12-10T22:17:29;47.33;;;17.00;;
36547;SDS011;22551;52.206;4.856;2022-12-10T22:22:32;57.53;;;19.50;;
36547;SDS011;22551;52.206;4.856;2022-12-10T22:27:36;51.83;;;18.70;;
36547;SDS011;22551;52.206;4.856;2022-12-10T22:32:38;52.97;;;17.42;;
36547;SDS011;22551;52.206;4.856;2022-12-10T22:37:43;45.47;;;17.10;;
36547;SDS011;22551;52.206;4.856;2022-12-10T22:42:46;54.05;;;16.92;;
36547;SDS011;22551;52.206;4.856;2022-12-10T22:47:49;50.60;;;17.25;;
36547;SDS011;22551;52.206;4.856;2022-12-10T22:52:51;48.78;;;16.73;;
36547;SDS011;22551;52.206;4.856;2022-12-10T22:57:55;45.38;;;15.95;;
36547;SDS011;22551;52.206;4.856;2022-12-10T23:02:57;46.63;;;16.50;;
36547;SDS011;22551;52.206;4.856;2022-12-10T23:08:00;44.75;;;15.15;;
36547;SDS011;22551;52.206;4.856;2022-12-10T23:13:08;44.15;;;17.23;;
36547;SDS011;22551;52.206;4.856;2022-12-10T23:18:13;48.15;;;16.17;;
36547;SDS011;22551;52.206;4.856;2022-12-10T23:23:16;51.60;;;17.90;;
36547;SDS011;22551;52.206;4.856;2022-12-10T23:28:20;53.75;;;17.77;;
36547;SDS011;22551;52.206;4.856;2022-12-10T23:33:24;51.13;;;17.27;;
36547;SDS011;22551;52.206;4.856;2022-12-10T23:38:26;53.35;;;17.05;;
36547;SDS011;22551;52.206;4.856;2022-12-10T23:43:30;50.38;;;16.77;;
36547;SDS011;22551;52.206;4.856;2022-12-10T23:48:32;40.33;;;16.80;;
36547;SDS011;22551;52.206;4.856;2022-12-10T23:53:35;51.65;;;16.35;;
36547;SDS011;22551;52.206;4.856;2022-12-10T23:58:39;50.50;;;17.15;;
